Joe Mauer (1B, MIN)

Avg
0.261
HR
8
wOBA
0.318
nERD
-0.05

Most Recent Player News

Minnesota Twins first baseman Joe Mauer is absent from the starting lineup on Tuesday against the Oakland Athletics.

What It Means:

Mauer, who also had a routine day off on Sunday, will sit down against southpaw Sean Manaea. He's slashing .262/.367/.376 with seven home runs and 26 RBI's in 79 games this season. His .323 wOBA ranks sixth on the Twins among hitters with at least 100 plate appearances this season.

Mauer continues to struggle with his pop, his .114 isolated power is well below the current league average of .162, but he's back to his walking ways. His 14.1 walk percentage is 10th best this season. Our models project Mauer to hit .262/.346/.363 with four home runs and a .313 wOBA over the remaining course of the season.

Source: Rotoworld.com
Posted on Tuesday, July 5th, 2016 at 5:08pm EDT

Joe Mauer Player Profile

Current Stats
Batting Average0.261
Hits89
SLUG0.370
OBP0.362
wOBA0.318
Statistical RankingsRank
Plate Appearances398#54
Runs47#79
Home Runs8#163
RBI30#173
Stolen Bases2#164
nERD-0.05#208

Fantasy RankingsRank
Fantasy Score 0.86 #124
Projected Stats
Batting Average0.260
Hits142
SLUG0.364
OBP0.356
wOBA0.315
Statistical RankingsRank
Plate Appearances636#64
Runs73#87
Home Runs11#176
RBI51#155
Stolen Bases6#130
Batting Average0.260#156
OPS0.720#201

Fantasy RankingsRank
Fantasy Score 1.48 #108
Remaining This Season
Batting Average0.256
Hits54
SLUG0.351
OBP0.343
wOBA0.309
Statistical RankingsRank
Plate Appearances243#88
Runs26#108
Home Runs3#198
RBI21#136
Stolen Bases4#74
Batting Average0.256#154
OPS0.694#209

Fantasy RankingsRank
Fantasy Score 1.54 #111

Projections By Game

Date Opponent PA AB BB 1B 2B 3B HR R RBI SB HBP SO AVG
2016-04-04 Baltimore 4.68 4.13 0.49 0.82 0.20 0.02 0.04 0.49 0.47 0.02 0.01 0.77 0.263
2016-04-06 Baltimore 4.68 4.17 0.46 0.82 0.24 0.02 0.03 0.43 0.45 0.02 0.01 0.81 0.268
2016-04-07 Baltimore 4.53 4.05 0.43 0.76 0.26 0.02 0.07 0.47 0.47 0.01 0.01 0.87 0.275
2016-04-08 Kansas City 4.47 4.01 0.40 0.80 0.26 0.01 0.06 0.50 0.45 0.01 0.01 0.82 0.282
2016-04-09 Kansas City 4.48 4.04 0.39 0.81 0.24 0.00 0.07 0.49 0.44 0.01 0.00 0.80 0.278
2016-04-10 Kansas City 4.51 4.05 0.40 0.77 0.26 0.01 0.06 0.51 0.47 0.01 0.01 0.77 0.274
2016-04-11 Chi. White Sox 4.46 3.91 0.51 0.68 0.25 0.01 0.09 0.49 0.43 0.01 0.01 0.78 0.265
2016-04-13 Chi. White Sox 4.57 4.04 0.49 0.77 0.19 0.03 0.06 0.49 0.49 0.01 0.01 0.76 0.261
2016-04-14 Chi. White Sox 4.40 3.92 0.45 0.75 0.23 0.01 0.08 0.47 0.45 0.02 0.01 0.76 0.273
2016-04-15 L.A. Angels 4.51 4.04 0.41 0.78 0.27 0.01 0.06 0.48 0.45 0.01 0.01 0.79 0.280
2016-04-16 L.A. Angels 4.34 3.92 0.37 0.79 0.24 0.00 0.06 0.45 0.41 0.02 0.00 0.76 0.278
2016-04-17 L.A. Angels 4.36 3.93 0.37 0.78 0.25 0.00 0.06 0.43 0.41 0.01 0.01 0.79 0.278
2016-04-18 Milwaukee 4.41 3.87 0.49 0.76 0.18 0.01 0.05 0.46 0.42 0.02 0.01 0.75 0.259
2016-04-19 Milwaukee 4.45 3.88 0.53 0.76 0.23 0.02 0.08 0.52 0.55 0.03 0.01 0.68 0.281
2016-04-20 Milwaukee 4.60 4.07 0.49 0.75 0.22 0.02 0.05 0.49 0.47 0.02 0.01 0.83 0.257
2016-04-21 Milwaukee 4.61 4.10 0.47 0.79 0.21 0.02 0.04 0.48 0.46 0.02 0.01 0.81 0.259
2016-04-22 Washington 4.48 3.99 0.47 0.63 0.25 0.00 0.10 0.51 0.44 0.01 0.01 0.90 0.245
2016-04-23 Washington 4.52 3.98 0.50 0.69 0.23 0.00 0.08 0.52 0.40 0.02 0.01 0.71 0.251
2016-04-25 Cleveland 4.33 3.92 0.36 0.75 0.26 0.00 0.06 0.45 0.37 0.01 0.01 0.83 0.273
2016-04-26 Cleveland 4.34 3.85 0.45 0.77 0.25 0.00 0.07 0.49 0.43 0.02 0.00 0.70 0.285
2016-04-27 Cleveland 4.36 3.89 0.43 0.78 0.24 0.00 0.08 0.49 0.44 0.01 0.00 0.77 0.282
2016-04-29 Detroit 4.40 3.94 0.38 0.80 0.19 0.02 0.05 0.46 0.50 0.03 0.01 0.69 0.272
2016-04-30 Detroit 4.39 3.99 0.33 0.83 0.24 0.01 0.05 0.48 0.50 0.03 0.01 0.64 0.285
Date Opponent PA AB BB 1B 2B 3B HR R RBI SB HBP SO AVG
2016-05-01 Detroit 4.40 3.94 0.40 0.75 0.23 0.01 0.02 0.44 0.47 0.02 0.01 0.66 0.262
2016-05-02 Houston 4.40 3.86 0.51 0.70 0.28 0.00 0.09 0.49 0.41 0.03 0.00 0.75 0.283
2016-05-03 Houston 4.48 3.97 0.47 0.86 0.19 0.00 0.08 0.52 0.40 0.03 0.01 0.83 0.289
2016-05-04 Houston 4.47 4.04 0.40 0.76 0.21 0.01 0.07 0.52 0.43 0.04 0.01 0.77 0.266
2016-05-06 Chi. White Sox 4.60 3.98 0.54 0.90 0.19 0.00 0.03 0.52 0.48 0.02 0.02 0.72 0.288
2016-05-10 Baltimore 4.62 4.13 0.43 0.86 0.26 0.01 0.06 0.44 0.50 0.03 0.01 0.78 0.292
2016-05-11 Baltimore 4.62 4.12 0.42 0.87 0.25 0.02 0.03 0.44 0.50 0.02 0.02 0.72 0.285
2016-05-13 Cleveland 4.66 4.12 0.51 0.88 0.21 0.01 0.08 0.57 0.39 0.03 0.00 0.71 0.284
2016-05-14 Cleveland 4.63 4.11 0.50 0.79 0.26 0.01 0.11 0.54 0.37 0.02 0.01 0.82 0.286
2016-05-15 Cleveland 4.79 4.30 0.46 0.87 0.25 0.00 0.11 0.52 0.38 0.05 0.00 0.74 0.292
2016-05-16 Detroit 4.72 4.24 0.41 0.95 0.24 0.01 0.04 0.53 0.44 0.02 0.01 0.72 0.291
2016-05-17 Detroit 4.78 4.24 0.44 0.80 0.28 0.02 0.01 0.47 0.44 0.02 0.02 0.69 0.257
2016-05-18 Detroit 4.76 4.28 0.39 0.88 0.18 0.02 0.05 0.49 0.50 0.02 0.01 0.71 0.265
2016-05-19 Toronto 4.38 3.92 0.42 0.85 0.23 0.00 0.06 0.45 0.45 0.03 0.00 0.68 0.291
2016-05-20 Toronto 4.39 3.91 0.45 0.79 0.20 0.01 0.06 0.41 0.46 0.06 0.00 0.73 0.266
2016-05-22 Toronto 4.33 3.96 0.33 0.73 0.22 0.03 0.07 0.41 0.45 0.04 0.00 0.70 0.260
2016-05-23 Kansas City 4.50 4.02 0.40 0.82 0.23 0.02 0.06 0.49 0.43 0.04 0.01 0.65 0.277
2016-05-24 Kansas City 4.54 4.04 0.41 0.84 0.23 0.03 0.06 0.47 0.45 0.02 0.02 0.73 0.280
2016-05-25 Kansas City 4.41 3.85 0.46 0.83 0.22 0.03 0.05 0.42 0.48 0.03 0.00 0.67 0.284
2016-05-27 Seattle 4.48 3.89 0.52 0.76 0.27 0.01 0.03 0.41 0.34 0.02 0.01 0.82 0.276
2016-05-28 Seattle 4.47 4.02 0.40 0.77 0.19 0.02 0.06 0.44 0.42 0.01 0.01 0.69 0.261
2016-05-29 Seattle 4.47 4.02 0.39 0.83 0.23 0.01 0.08 0.44 0.43 0.01 0.02 0.87 0.287
2016-05-30 Oakland 4.57 4.01 0.48 0.76 0.25 0.02 0.06 0.47 0.43 0.02 0.03 0.75 0.270
2016-05-31 Oakland 4.66 4.05 0.56 0.75 0.23 0.03 0.08 0.51 0.48 0.02 0.00 0.71 0.269
Date Opponent PA AB BB 1B 2B 3B HR R RBI SB HBP SO AVG
2016-06-02 Tampa Bay 4.50 4.08 0.38 0.73 0.26 0.02 0.08 0.50 0.46 0.02 0.00 0.74 0.269
2016-06-03 Tampa Bay 4.48 4.05 0.39 0.77 0.28 0.00 0.09 0.51 0.52 0.02 0.00 0.74 0.279
2016-06-04 Tampa Bay 4.49 4.02 0.41 0.72 0.27 0.01 0.05 0.48 0.46 0.01 0.01 0.84 0.261
2016-06-05 Tampa Bay 4.37 3.90 0.40 0.77 0.25 0.01 0.05 0.50 0.45 0.00 0.02 0.69 0.273
2016-06-07 Miami 4.45 3.87 0.50 0.78 0.20 0.01 0.06 0.47 0.56 0.02 0.01 0.65 0.269
2016-06-08 Miami 4.41 3.86 0.49 0.85 0.15 0.01 0.07 0.46 0.59 0.01 0.00 0.67 0.278
2016-06-09 Miami 4.45 3.81 0.51 0.98 0.16 0.01 0.06 0.40 0.53 0.03 0.04 0.55 0.311
2016-06-10 Boston 4.47 3.83 0.55 0.88 0.19 0.01 0.03 0.48 0.42 0.03 0.01 0.65 0.288
2016-06-11 Boston 4.57 3.94 0.56 0.82 0.23 0.02 0.07 0.52 0.55 0.02 0.02 0.61 0.285
2016-06-12 Boston 4.38 3.87 0.46 0.79 0.21 0.00 0.08 0.45 0.51 0.02 0.03 0.72 0.275
2016-06-13 L.A. Angels 4.50 4.01 0.41 0.75 0.17 0.00 0.07 0.47 0.45 0.03 0.04 0.64 0.246
2016-06-14 L.A. Angels 4.56 4.03 0.45 0.73 0.21 0.01 0.06 0.46 0.44 0.02 0.03 0.78 0.249
2016-06-15 L.A. Angels 4.69 4.11 0.52 0.79 0.18 0.01 0.08 0.46 0.48 0.04 0.01 0.68 0.257
2016-06-17 N.Y. Yankees 4.51 4.09 0.39 0.81 0.16 0.00 0.06 0.42 0.30 0.02 0.02 0.79 0.248
2016-06-18 N.Y. Yankees 4.34 3.96 0.36 0.83 0.16 0.00 0.05 0.39 0.39 0.01 0.01 0.83 0.260
2016-06-19 N.Y. Yankees 4.40 3.95 0.39 0.76 0.17 0.00 0.07 0.40 0.37 0.01 0.03 0.72 0.252
2016-06-21 Philadelphia 4.38 3.85 0.41 0.79 0.14 0.00 0.07 0.46 0.36 0.02 0.06 0.71 0.254
2016-06-22 Philadelphia 4.52 3.92 0.52 0.83 0.18 0.00 0.10 0.57 0.49 0.01 0.04 0.64 0.273
2016-06-23 Philadelphia 4.37 3.93 0.35 0.81 0.17 0.01 0.08 0.48 0.44 0.02 0.04 0.64 0.262
2016-06-24 N.Y. Yankees 4.52 4.06 0.41 0.79 0.21 0.00 0.06 0.50 0.36 0.02 0.04 0.77 0.257
2016-06-25 N.Y. Yankees 4.48 4.07 0.38 0.84 0.20 0.00 0.05 0.46 0.39 0.01 0.01 0.83 0.265
2016-06-26 N.Y. Yankees 4.52 3.96 0.48 0.73 0.22 0.00 0.08 0.45 0.38 0.01 0.03 0.83 0.256
2016-06-28 Chi. White Sox 4.48 3.91 0.49 0.77 0.18 0.00 0.04 0.41 0.46 0.03 0.03 0.72 0.259
2016-06-29 Chi. White Sox 4.66 3.79 0.81 1.01 0.20 0.02 0.03 0.53 0.50 0.03 0.00 0.52 0.324
Date Opponent PA AB BB 1B 2B 3B HR R RBI SB HBP SO AVG
2016-07-01 Texas 4.56 4.00 0.44 0.83 0.18 0.01 0.03 0.41 0.40 0.03 0.02 0.64 0.246
2016-07-02 Texas 4.52 3.89 0.52 0.89 0.23 0.03 0.04 0.50 0.41 0.02 0.04 0.57 0.285
2016-07-03 Texas 4.52 3.94 0.51 0.77 0.19 0.02 0.06 0.43 0.44 0.00 0.00 0.58 0.244
2016-07-04 Oakland 4.55 3.94 0.48 0.85 0.17 0.01 0.04 0.45 0.31 0.01 0.03 0.50 0.243
2016-07-06 Oakland 4.44 3.89 0.44 0.83 0.16 0.01 0.03 0.45 0.28 0.00 0.02 0.57 0.238
2016-07-07 Texas 4.80 4.08 0.59 0.86 0.21 0.02 0.03 0.54 0.35 0.07 0.05 0.51 0.256
2016-07-09 Texas 4.75 3.95 0.64 0.83 0.15 0.02 0.05 0.56 0.42 0.04 0.09 0.68 0.249
2016-07-10 Texas 4.69 4.00 0.58 0.72 0.16 0.01 0.09 0.67 0.44 0.02 0.05 0.65 0.232
2016-07-15 Cleveland 4.54 3.84 0.54 0.79 0.17 0.01 0.04 0.47 0.29 0.00 0.07 0.66 0.245
2016-07-16 Cleveland 4.51 3.88 0.52 0.80 0.15 0.02 0.03 0.45 0.47 0.04 0.03 0.72 0.244
2016-07-18 Detroit 4.77 3.97 0.69 0.71 0.21 0.02 0.09 0.47 0.35 0.02 0.03 0.62 0.241
2016-07-19 Detroit 4.68 3.90 0.62 0.71 0.21 0.01 0.07 0.43 0.39 0.05 0.06 0.53 0.252
2016-07-20 Detroit 4.65 4.03 0.45 0.76 0.18 0.03 0.06 0.43 0.30 0.04 0.02 0.55 0.238
2016-07-21 Boston 4.70 3.97 0.61 0.85 0.21 0.03 0.02 0.67 0.31 0.05 0.07 0.51 0.260
2016-07-22 Boston 4.68 3.98 0.57 0.78 0.20 0.02 0.10 0.61 0.48 0.08 0.03 0.48 0.258
2016-07-24 Boston 4.63 4.03 0.51 0.85 0.13 0.02 0.04 0.53 0.32 0.05 0.01 0.58 0.236
2016-07-26 Atlanta 4.51 3.85 0.51 0.95 0.14 0.02 0.04 0.55 0.33 0.04 0.03 0.56 0.268
2016-07-27 Atlanta 4.53 3.87 0.51 0.89 0.15 0.01 0.10 0.51 0.37 0.06 0.01 0.47 0.272
2016-07-28 Baltimore 4.54 3.99 0.43 0.83 0.14 0.03 0.05 0.45 0.46 0.04 0.01 0.54 0.239
2016-07-29 Chi. White Sox 4.49 3.94 0.49 0.90 0.18 0.03 0.05 0.58 0.43 0.02 0.00 0.53 0.271
2016-07-30 Chi. White Sox 4.54 3.83 0.58 0.88 0.19 0.02 0.05 0.55 0.36 0.03 0.01 0.59 0.273
2016-07-31 Chi. White Sox 4.57 3.79 0.62 0.89 0.19 0.02 0.06 0.57 0.31 0.05 0.02 0.60 0.276
Date Opponent PA AB BB 1B 2B 3B HR R RBI SB HBP SO AVG
2016-08-01 Cleveland 4.61 3.96 0.53 0.67 0.18 0.03 0.06 0.50 0.32 0.11 0.03 0.66 0.218
2016-08-02 Cleveland 4.60 4.11 0.36 0.76 0.14 0.02 0.03 0.44 0.36 0.09 0.03 0.62 0.210
2016-08-03 Cleveland 4.59 4.00 0.49 0.81 0.17 0.03 0.06 0.55 0.39 0.06 0.01 0.58 0.247

Statlines By Game

Date Opponent PA AB BB 1B 2B 3B HR R RBI SB HBP SO AVG
2016-04-04 Baltimore 4 4 0 2 0 0 0 0 0 0 0 1 0.500
2016-04-06 Baltimore 5 3 1 0 0 0 0 0 1 0 0 1 0.000
2016-04-07 Baltimore 4 4 0 1 0 0 1 1 1 0 0 0 0.500
2016-04-08 Kansas City 5 2 3 0 0 0 0 1 0 0 0 0 0.000
2016-04-09 Kansas City 4 4 0 1 0 0 0 0 0 0 0 2 0.250
2016-04-10 Kansas City 5 3 1 3 0 0 0 1 0 0 1 0 1.000
2016-04-11 Chi. White Sox 4 4 0 1 0 0 0 0 0 0 0 0 0.250
2016-04-13 Chi. White Sox 4 4 0 1 1 0 0 0 0 0 0 0 0.500
2016-04-14 Chi. White Sox 4 3 1 0 0 1 0 1 0 0 0 0 0.333
2016-04-15 L.A. Angels 4 4 0 1 0 0 0 0 1 0 0 0 0.250
2016-04-16 L.A. Angels 4 4 0 1 0 0 0 1 0 0 0 0 0.250
2016-04-17 L.A. Angels 6 4 2 2 0 0 0 0 0 0 0 0 0.500
2016-04-18 Milwaukee 4 4 0 0 1 0 0 0 1 0 0 0 0.250
2016-04-19 Milwaukee 5 3 2 0 0 0 0 0 0 0 0 0 0.000
2016-04-20 Milwaukee 5 3 2 1 0 0 0 0 1 0 0 1 0.333
2016-04-21 Milwaukee 5 3 2 0 1 0 0 1 0 0 0 0 0.333
2016-04-22 Washington 4 4 0 1 0 0 0 0 1 0 0 0 0.250
2016-04-23 Washington 4 4 0 1 0 0 0 0 0 0 0 2 0.250
2016-04-24 Washington 4 3 1 1 0 0 0 1 0 0 0 1 0.333
2016-04-25 Cleveland 4 3 1 0 1 0 0 0 0 0 0 0 0.333
2016-04-26 Cleveland 5 3 2 0 1 0 0 0 1 1 0 0 0.333
2016-04-27 Cleveland 5 3 2 0 0 0 0 1 0 0 0 0 0.000
2016-04-29 Detroit 4 4 0 1 0 0 0 0 0 0 0 1 0.250
2016-04-30 Detroit 4 4 0 2 0 0 0 0 0 0 0 0 0.500
Date Opponent PA AB BB 1B 2B 3B HR R RBI SB HBP SO AVG
2016-05-01 Detroit 5 5 0 2 1 0 0 2 1 0 0 0 0.600
2016-05-02 Houston 4 3 1 0 0 0 0 0 0 0 0 0 0.000
2016-05-03 Houston 4 3 1 0 0 0 0 0 1 0 0 1 0.000
2016-05-04 Houston 4 4 0 2 0 0 0 0 0 0 0 1 0.500
2016-05-06 Chi. White Sox 4 4 0 0 0 0 0 0 0 0 0 1 0.000
2016-05-07 Chi. White Sox 3 3 0 0 0 0 0 0 0 0 0 2 0.000
2016-05-08 Chi. White Sox 1 1 0 0 0 0 0 0 0 0 0 1 0.000
2016-05-10 Baltimore 4 3 1 0 0 0 0 0 0 0 0 2 0.000
2016-05-11 Baltimore 4 3 1 2 0 0 0 0 0 0 0 0 0.667
2016-05-13 Cleveland 5 4 1 0 0 0 0 0 0 0 0 0 0.000
2016-05-14 Cleveland 5 5 0 2 0 0 0 0 0 0 0 1 0.400
2016-05-15 Cleveland 4 4 0 0 0 0 0 0 0 0 0 1 0.000
2016-05-16 Detroit 5 5 0 0 0 0 0 0 0 0 0 2 0.000
2016-05-17 Detroit 4 4 0 0 0 0 1 1 1 0 0 2 0.250
2016-05-18 Detroit 5 4 1 0 0 0 0 0 0 0 0 2 0.000
2016-05-19 Toronto 4 4 0 1 0 0 0 0 1 0 0 0 0.250
2016-05-20 Toronto 4 4 0 1 0 0 0 0 0 0 0 1 0.250
2016-05-22 Toronto 4 3 1 0 0 0 0 0 0 0 0 1 0.000
2016-05-23 Kansas City 5 5 0 2 0 0 1 1 1 0 0 0 0.600
2016-05-24 Kansas City 5 4 1 1 0 0 0 0 1 0 0 1 0.250
2016-05-25 Kansas City 4 4 0 2 0 0 0 1 0 0 0 1 0.500
2016-05-27 Seattle 5 4 1 1 0 0 1 2 2 0 0 1 0.500
2016-05-28 Seattle 5 4 1 1 0 0 1 2 2 0 0 1 0.500
2016-05-29 Seattle 4 4 0 0 0 0 1 1 1 0 0 2 0.250
2016-05-30 Oakland 4 3 1 0 0 0 0 0 0 0 0 1 0.000
2016-05-31 Oakland 5 5 0 2 0 0 0 0 0 0 0 0 0.400
Date Opponent PA AB BB 1B 2B 3B HR R RBI SB HBP SO AVG
2016-06-01 Oakland 1 0 1 0 0 0 0 0 0 0 0 0 0.000
2016-06-02 Tampa Bay 5 4 1 1 0 0 0 0 0 0 0 1 0.250
2016-06-03 Tampa Bay 5 4 1 0 0 0 0 1 0 0 0 1 0.000
2016-06-04 Tampa Bay 5 4 0 2 0 0 0 0 2 0 0 1 0.500
2016-06-05 Tampa Bay 5 4 1 1 0 0 0 0 1 0 0 2 0.250
2016-06-07 Miami 5 4 1 1 0 0 0 1 0 0 0 0 0.250
2016-06-08 Miami 5 5 0 1 0 0 1 3 1 0 0 1 0.400
2016-06-09 Miami 3 2 1 0 0 0 0 0 0 0 0 0 0.000
2016-06-10 Boston 4 4 0 1 0 0 0 0 0 0 0 0 0.250
2016-06-11 Boston 4 3 1 1 0 0 0 1 0 0 0 0 0.333
2016-06-12 Boston 5 4 1 1 0 0 0 2 1 0 0 0 0.250
2016-06-13 L.A. Angels 5 5 0 2 0 0 0 2 1 0 0 0 0.400
2016-06-14 L.A. Angels 5 5 0 1 0 1 0 0 1 0 0 0 0.400
2016-06-15 L.A. Angels 4 4 0 1 0 0 0 0 1 0 0 1 0.250
2016-06-17 N.Y. Yankees 4 4 0 1 0 0 0 0 0 0 0 1 0.250
2016-06-18 N.Y. Yankees 4 4 0 0 0 0 0 0 0 0 0 3 0.000
2016-06-19 N.Y. Yankees 4 3 1 0 0 0 0 0 0 0 0 1 0.000
2016-06-21 Philadelphia 5 5 0 1 1 0 0 2 0 0 0 1 0.400
2016-06-22 Philadelphia 5 5 0 1 0 0 0 1 0 0 0 0 0.200
2016-06-23 Philadelphia 4 4 0 1 0 0 0 0 0 0 0 1 0.250
2016-06-24 N.Y. Yankees 4 3 1 0 0 0 0 0 0 0 0 1 0.000
2016-06-25 N.Y. Yankees 4 4 0 1 0 0 0 0 0 0 0 3 0.250
2016-06-26 N.Y. Yankees 4 3 1 0 0 0 0 1 0 0 0 1 0.000
2016-06-28 Chi. White Sox 4 3 1 0 0 0 0 1 0 0 0 2 0.000
2016-06-29 Chi. White Sox 4 4 0 0 0 0 0 0 0 0 0 1 0.000
Date Opponent PA AB BB 1B 2B 3B HR R RBI SB HBP SO AVG
2016-07-01 Texas 4 2 2 0 0 0 0 0 0 0 0 0 0.000
2016-07-02 Texas 5 3 2 1 0 0 0 3 0 0 0 1 0.333
2016-07-03 Texas 5 5 0 0 0 0 0 0 0 0 0 1 0.000
2016-07-04 Oakland 4 3 1 1 1 0 0 1 0 0 0 1 0.667
2016-07-06 Oakland 5 5 0 2 1 0 0 1 1 0 0 0 0.600
2016-07-07 Texas 6 5 1 2 0 0 0 2 0 0 0 0 0.400
2016-07-08 Texas 1 1 0 0 0 0 0 0 0 0 0 0 0.000
2016-07-09 Texas 5 4 1 1 0 0 0 0 0 0 0 0 0.250
2016-07-10 Texas 5 5 0 2 0 0 0 1 1 0 0 0 0.400
2016-07-15 Cleveland 4 4 0 1 0 0 0 1 0 0 0 1 0.250
2016-07-16 Cleveland 6 3 3 0 0 0 0 2 0 0 0 0 0.000
2016-07-18 Detroit 4 4 0 0 0 0 0 0 0 0 0 0 0.000
2016-07-19 Detroit 4 4 0 2 0 0 0 1 1 1 0 0 0.500
2016-07-20 Detroit 4 4 0 0 0 0 1 1 1 0 0 0 0.250
2016-07-21 Boston 4 4 0 0 0 0 0 0 0 0 0 2 0.000

DFS Performance

  FanDuel DraftKings FantasyFeud DraftDay FantasyAces FantasyScore Yahoo
Date Opponent FP Value FP Value FP Value FP Value FP Value FP Value FP Value
2016-04-04 Baltimore 6 2.4 6 1.43 2 0.38 8 1.15 1.5 0.38 2 0.5 4 0.36
2016-04-06 Baltimore 6.5 2.6 4 1 2.5 0.41 7 0.97 1.75 0.44 2 0.5 4 0.36
2016-04-07 Baltimore 21.7 8.68 17 4.72 8.75 1.57 33 4.68 7.5 1.88 7 1.75 14 0.88
2016-04-08 Kansas City 12.2 4.88 8 2.22 4.5 0.82 18 2.57 4.25 1.06 4 1 8 0.67
2016-04-09 Kansas City 3 1.11 3 0.79 0.25 0.04 2 0.26 0 0 1 0.25 2 0.2
2016-04-10 Kansas City 18.2 6.5 15 4.29 7.25 1.24 30 3.95 5.75 1.44 6 1.5 12 1.09
2016-04-11 Chi. White Sox 3 1.07 3 0.86 1.25 0.22 2 0.29 1 0.23 1 0.25 2 0.18
2016-04-13 Chi. White Sox 9 3.21 8 2.29 3.25 0.57 13 1.84 3 0.68 3 0.71 6 0.6
2016-04-14 Chi. White Sox 15.2 5.43 12 3.43 5.5 0.92 23 3.26 5.25 1.19 5 1.19 10 0.77
2016-04-15 L.A. Angels 6.5 2.32 5 1.43 3.25 0.6 7 0.99 2.25 0.51 2 0.48 4 0.25
2016-04-16 L.A. Angels 6.2 2.07 5 1.28 2.75 0.46 7 0.98 2.25 0.51 2 0.48 4 0.31
2016-04-17 L.A. Angels 12 4 10 2.7 4.5 0.7 18 2.55 4 0.91 4 0.95 8 0.47
2016-04-18 Milwaukee 9.5 3.17 7 1.89 4 0.63 12 1.69 3.25 0.74 3 0.71 6 0.35
2016-04-19 Milwaukee 6 1.94 4 1.11 2 0.31 7 0.97 2 0.45 2 0.48 4 0.22
2016-04-20 Milwaukee 12.5 4.03 9 2.5 4.75 0.78 18 2.52 3.75 0.85 4 0.95 8 0.47
2016-04-21 Milwaukee 15.2 4.9 11 3.06 5.5 0.87 23 3.24 5.25 1.19 5 1.19 10 0.53
2016-04-22 Washington 6.5 2.03 5 1.32 3.25 0.51 7 0.98 2.25 0.51 2 0.48 4 0.24
2016-04-23 Washington 3 0.91 3 0.97 0.25 0.04 2 0.28 0 0 1 0.24 2 0.12
2016-04-24 Washington 9.2 2.79 7 1.94 3.25 0.56 13 1.79 2.75 0.63 3 0.71 6 0.38
2016-04-25 Cleveland 9 2.81 7 1.94 3 0.48 13 1.84 3 0.68 3 0.71 6 0.33
2016-04-26 Cleveland 21.5 6.94 16 4.32 8 1.28 28 3.97 7.25 1.65 7 1.67 14 0.82
2016-04-27 Cleveland 9.2 2.88 6 1.76 3.5 0.62 12 1.74 3.25 0.74 3 0.71 6 0.38
2016-04-29 Detroit 3 0.88 3 0.81 0.75 0.12 2 0.26 0.5 0.11 1 0.24 2 0.1
2016-04-30 Detroit 6 1.76 6 1.58 2.5 0.44 8 1.06 2 0.43 2 0.48 4 0.27
  FanDuel DraftKings FantasyFeud DraftDay FantasyAces FantasyScore Yahoo
Date Opponent FP Value FP Value FP Value FP Value FP Value FP Value FP Value
2016-05-01 Detroit 21.9 6.64 17 5.31 9.5 1.44 33 4.55 7.75 1.68 7 1.67 14 0.78
2016-05-02 Houston 3 0.91 2 0.63 1 0.16 2 0.29 1 0.22 1 0.24 2 0.13
2016-05-03 Houston 6.5 1.86 4 1.14 2.5 0.37 7 0.93 1.75 0.38 2 0.5 4 0.24
2016-05-04 Houston 6 1.76 6 1.76 2 0.33 8 1.1 1.5 0.33 2 0.5 4 0.22
2016-05-06 Chi. White Sox 0 0 0 0 -0.5 -0.08 -4 -0.56 -0.5 -0.11 0 0 0 0
2016-05-07 Chi. White Sox 0 0 0 0 -1 -0.17 -3 -0.42 -1 -0.22 0 0 0 0
2016-05-08 Chi. White Sox 0 0 0 0 -0.5 -0.09 -1 -0.15 -0.5 -0.11 0 0 0 0
2016-05-10 Baltimore 3 1.07 2 0.59 0 0 2 0.33 0 0 1 0.24 2 0.13
2016-05-11 Baltimore 9 3.21 8 2.11 3.5 0.63 14 2.31 3 0.67 3 0.71 6 0.4
2016-05-13 Cleveland 3 1.03 2 0.63 1 0.2 1 0.16 1 0.22 1 0.24 2 0.15
2016-05-14 Cleveland 6 2.07 6 1.67 2 0.41 7 1.09 1.5 0.33 2 0.48 4 0.27
2016-05-15 Cleveland 0 0 0 0 -0.5 -0.09 -4 -0.63 -0.5 -0.11 0 0 0 0
2016-05-16 Detroit 0 0 0 0 -1 -0.22 -5 -0.83 -1 -0.22 0 0 0 0
2016-05-17 Detroit 18.7 6.93 14 4.83 6.5 1.26 27 4.22 5.5 1.22 6 1.46 12 0.86
2016-05-18 Detroit 3 1.15 2 0.63 0 0 1 0.16 0 0 1 0.24 2 0.2
2016-05-19 Toronto 6.5 2.32 5 1.56 3.25 0.69 7 1.06 2.25 0.5 2 0.49 4 0.4
2016-05-20 Toronto 3 1.11 3 0.94 0.75 0.16 2 0.31 0.5 0.11 1 0.24 2 0.2
2016-05-22 Toronto 3 1.15 2 0.67 0.5 0.11 2 0.31 0.5 0.11 1 0.24 2 0.2
2016-05-23 Kansas City 24.7 9.5 20 6.67 10 2.35 38 5.89 8.5 1.89 8 1.9 16 1.78
2016-05-24 Kansas City 9.5 3.8 7 2.19 3.75 0.81 12 1.88 2.75 0.61 3 0.71 6 0.75
2016-05-25 Kansas City 9.2 3.68 8 2.16 3.5 0.67 13 1.97 2.75 0.61 3 0.71 6 0.75
2016-05-27 Seattle 31.4 10.83 23 8.21 12.75 2.61 48 8 10.5 2.33 10 2.38 20 2.5
2016-05-28 Seattle 31.4 10.83 23 7.42 12.75 2.61 48 8 10.5 2.33 10 2.38 20 2.22
2016-05-29 Seattle 18.7 6.03 14 3.41 6.5 1.08 27 4.35 5.5 1.22 6 1.43 12 1.2
2016-05-30 Oakland 3 0.91 2 0.49 0.5 0.07 2 0.31 0.5 0.11 1 0.24 2 0.18
2016-05-31 Oakland 6 1.71 6 1.46 2.5 0.34 7 1.07 2 0.44 2 0.48 4 0.27
  FanDuel DraftKings FantasyFeud DraftDay FantasyAces FantasyScore Yahoo
Date Opponent FP Value FP Value FP Value FP Value FP Value FP Value FP Value
2016-06-01 Oakland 3 0.88 2 0.48 1 0.13 5 0.77 1 0.22 1 0.24 2 0.12
2016-06-02 Tampa Bay 6 1.76 5 1.19 1.75 0.24 7 0.98 1.5 0.33 2 0.48 4 0.36
2016-06-03 Tampa Bay 6.2 1.88 4 1.03 2 0.29 6 0.85 1.75 0.39 2 0.48 4 0.33
2016-06-04 Tampa Bay 13 3.94 10 2.38 6 0.83 18 2.55 4 0.89 4 0.95 8 0.73
2016-06-05 Tampa Bay 9.5 3.06 7 1.67 3.25 0.48 12 1.71 2.25 0.5 3 0.71 6 0.55
2016-06-07 Miami 9.2 2.79 7 1.71 3.75 0.54 12 1.7 3.25 0.72 3 0.71 6 0.55
2016-06-08 Miami 28.1 8.52 21 5.12 11.25 1.61 42 5.96 9.5 2.11 9 2.14 18 1.8
2016-06-09 Miami 3 0.88 2 0.48 1 0.15 3 0.43 1 0.22 1 0.24 2 0.13
2016-06-10 Boston 3 0.83 3 0.91 1.25 0.21 2 0.28 1 0.22 1 0.24 2 0.13
2016-06-11 Boston 9.2 2.63 7 2 3.75 0.62 13 1.82 3.25 0.72 3 0.71 6 0.4
2016-06-12 Boston 15.9 4.68 11 2.89 7.25 1.27 22 3.08 5.75 1.28 5 1.19 10 0.67
2016-06-13 L.A. Angels 15.9 4.97 12 3.16 7.5 1.17 22 3.41 5.75 1.28 5 1.19 10 0.67
2016-06-14 L.A. Angels 15.5 4.7 13 3.61 6.25 0.92 22 3.41 5.25 1.17 5 1.19 10 0.67
2016-06-15 L.A. Angels 6.5 1.91 5 1.25 2.75 0.36 7 1.08 1.75 0.39 2 0.48 4 0.25
2016-06-17 N.Y. Yankees 3 0.94 3 0.75 0.75 0.11 2 0.28 0.5 0.11 1 0.24 2 0.12
2016-06-18 N.Y. Yankees 0 0 0 0 -1.5 -0.21 -4 -0.55 -1.5 -0.33 0 0 0 0
2016-06-19 N.Y. Yankees 3 0.97 2 0.48 0.5 0.07 2 0.28 0.5 0.11 1 0.24 2 0.12
2016-06-21 Philadelphia 15.4 5.5 12 3.64 5.75 0.99 22 3.12 5 1.16 5 1.19 10 0.59
2016-06-22 Philadelphia 6.2 2.21 5 1.39 2.75 0.43 6 0.85 2.25 0.52 2 0.48 4 0.22
2016-06-23 Philadelphia 3 1.03 3 0.88 0.75 0.12 2 0.28 0.5 0.12 1 0.24 2 0.13
2016-06-24 N.Y. Yankees 3 1.03 2 0.57 0.5 0.09 2 0.27 0.5 0.12 1 0.24 2 0.13
2016-06-25 N.Y. Yankees 3 1.07 3 0.81 -0.25 -0.04 2 0.27 -0.5 -0.12 1 0.24 2 0.12
2016-06-26 N.Y. Yankees 6.2 2.21 4 1.08 2 0.34 7 0.95 1.75 0.41 2 0.48 4 0.25
2016-06-28 Chi. White Sox 6.2 2.14 4 1.38 1.5 0.29 7 1.01 1.25 0.29 2 0.48 4 0.25
2016-06-29 Chi. White Sox 0 0 0 0 -0.5 -0.09 -4 -0.58 -0.5 -0.12 0 0 0 0
  FanDuel DraftKings FantasyFeud DraftDay FantasyAces FantasyScore Yahoo
Date Opponent FP Value FP Value FP Value FP Value FP Value FP Value FP Value
2016-07-01 Texas 6 2.22 4 1.25 2 0.4 8 1.17 2 0.47 2 0.48 4 0.4
2016-07-02 Texas 18.6 6.2 13 5.42 7.25 1.44 28 4.09 6.25 1.45 6 1.43 12 1.2
2016-07-03 Texas 0 0 0 0 -0.5 -0.11 -5 -0.73 -0.5 -0.12 0 0 0 0
2016-07-04 Oakland 15.2 5.24 12 4 5.25 0.95 24 3.48 4.75 1.1 5 1.14 10 1.25
2016-07-06 Oakland 18.7 5.84 15 4.29 8 1.49 28 4.06 6.5 1.51 6 1.36 12 1.5
2016-07-07 Texas 15.4 4.81 12 3.43 6.5 1.21 22 3.17 5.5 1.28 5 1.14 10 0.91
2016-07-08 Texas 0 0 0 0 0 0 -1 -0.14 0 0 0 0 0 0
2016-07-09 Texas 6 1.71 5 1.28 2.25 0.35 7 0.99 2 0.47 2 0.45 4 0.33
2016-07-10 Texas 12.7 4.1 10 2.78 6 1.04 17 2.43 4.5 1.05 4 0.91 8 0.8
2016-07-15 Cleveland 6.2 1.94 5 1.39 2.25 0.39 7 1.01 1.75 0.41 2 0.45 4 0.5
2016-07-16 Cleveland 15.4 4.81 10 2.33 6 1.05 22 3.17 5.5 1.28 5 1.14 10 1.11
2016-07-18 Detroit 0 0 0 0 0 0 -4 -0.59 0 0 0 0 0 0
2016-07-19 Detroit 18.7 5.84 15 4.05 8 1.13 23 3.41 6.5 1.51 6 1.36 12 1.09
2016-07-20 Detroit 18.7 6.68 14 3.04 7.5 1.32 27 4.03 6.5 1.51 6 1.36 12 1.33
2016-07-21 Boston 0 0 0 0 -1 -0.15 -4 -0.58 -1 -0.23 0 0 0 0

Player History

Year Age Team G PA H HR RBI SB BA
2016 33 Minnesota 92 398 89 8 30 2 0.261
2015 32 Minnesota 158 666 157 10 66 2 0.265
2014 31 Minnesota 120 518 126 4 55 3 0.277
2013 30 Minnesota 113 508 144 11 47 0 0.324
2012 29 Minnesota 147 641 174 10 85 8 0.319
2011 28 Minnesota 82 333 85 3 30 0 0.287
2010 27 Minnesota 137 584 167 9 75 1 0.327
2009 26 Minnesota 138 606 191 28 96 4 0.365
2008 25 Minnesota 146 633 176 9 85 1 0.328
2007 24 Minnesota 109 471 119 7 60 7 0.293
2006 23 Minnesota 140 608 181 13 84 8 0.347
2005 22 Minnesota 131 554 144 9 55 13 0.294
2004 21 Minnesota 35 122 33 6 17 1 0.308
Similar Players

Similar Players

Sorry! We don't enough data on this player to make significant comparisons. This is likely due to the fact that this player is new to the league, or is an unknown commodity in terms of talent.